sensor_id;sensor_type;location;lat;lon;timestamp;P1;P2;P0
62054;PMS5003;48653;51.742;-1.256;2024-03-08T00:03:45;94;73;
62054;PMS5003;48653;51.742;-1.256;2024-03-08T00:06:10;91;71;
62054;PMS5003;48653;51.742;-1.256;2024-03-08T00:08:36;84;68;
62054;PMS5003;48653;51.742;-1.256;2024-03-08T00:11:01;86;72;
62054;PMS5003;48653;51.742;-1.256;2024-03-08T00:13:27;91;74;
62054;PMS5003;48653;51.742;-1.256;2024-03-08T00:15:52;92;73;
62054;PMS5003;48653;51.742;-1.256;2024-03-08T00:18:17;96;79;
62054;PMS5003;48653;51.742;-1.256;2024-03-08T00:20:42;82;71;
62054;PMS5003;48653;51.742;-1.256;2024-03-08T00:23:08;87;73;
62054;PMS5003;48653;51.742;-1.256;2024-03-08T00:25:33;79;68;
62054;PMS5003;48653;51.742;-1.256;2024-03-08T00:27:59;98;74;
62054;PMS5003;48653;51.742;-1.256;2024-03-08T00:30:25;87;68;
62054;PMS5003;48653;51.742;-1.256;2024-03-08T00:32:50;98;80;
62054;PMS5003;48653;51.742;-1.256;2024-03-08T00:35:15;89;76;
62054;PMS5003;48653;51.742;-1.256;2024-03-08T00:37:40;94;76;
62054;PMS5003;48653;51.742;-1.256;2024-03-08T00:40:06;91;75;
62054;PMS5003;48653;51.742;-1.256;2024-03-08T00:42:31;85;74;
62054;PMS5003;48653;51.742;-1.256;2024-03-08T00:44:57;97;80;
62054;PMS5003;48653;51.742;-1.256;2024-03-08T00:47:22;92;73;
62054;PMS5003;48653;51.742;-1.256;2024-03-08T00:49:47;91;71;
62054;PMS5003;48653;51.742;-1.256;2024-03-08T00:52:13;94;76;
62054;PMS5003;48653;51.742;-1.256;2024-03-08T00:54:38;97;77;
62054;PMS5003;48653;51.742;-1.256;2024-03-08T00:57:04;84;73;
62054;PMS5003;48653;51.742;-1.256;2024-03-08T00:59:29;97;77;
62054;PMS5003;48653;51.742;-1.256;2024-03-08T01:01:54;94;71;
62054;PMS5003;48653;51.742;-1.256;2024-03-08T01:04:20;101;77;
62054;PMS5003;48653;51.742;-1.256;2024-03-08T01:06:45;90;69;
62054;PMS5003;48653;51.742;-1.256;2024-03-08T01:09:11;93;83;
62054;PMS5003;48653;51.742;-1.256;2024-03-08T01:11:36;84;74;
62054;PMS5003;48653;51.742;-1.256;2024-03-08T01:14:02;103;81;
62054;PMS5003;48653;51.742;-1.256;2024-03-08T01:16:27;94;76;
62054;PMS5003;48653;51.742;-1.256;2024-03-08T01:18:52;92;76;
62054;PMS5003;48653;51.742;-1.256;2024-03-08T01:21:17;81;76;
62054;PMS5003;48653;51.742;-1.256;2024-03-08T01:23:43;87;72;
62054;PMS5003;48653;51.742;-1.256;2024-03-08T01:26:09;88;78;
62054;PMS5003;48653;51.742;-1.256;2024-03-08T01:28:34;96;76;
62054;PMS5003;48653;51.742;-1.256;2024-03-08T01:31:00;87;72;
62054;PMS5003;48653;51.742;-1.256;2024-03-08T01:33:26;91;79;
62054;PMS5003;48653;51.742;-1.256;2024-03-08T01:35:51;84;77;
62054;PMS5003;48653;51.742;-1.256;2024-03-08T01:38:16;93;77;
62054;PMS5003;48653;51.742;-1.256;2024-03-08T01:40:41;97;77;
62054;PMS5003;48653;51.742;-1.256;2024-03-08T01:43:16;94;77;
62054;PMS5003;48653;51.742;-1.256;2024-03-08T01:45:32;94;78;
62054;PMS5003;48653;51.742;-1.256;2024-03-08T01:47:57;95;76;
62054;PMS5003;48653;51.742;-1.256;2024-03-08T01:50:22;83;76;
62054;PMS5003;48653;51.742;-1.256;2024-03-08T01:52:48;82;70;
62054;PMS5003;48653;51.742;-1.256;2024-03-08T01:55:13;89;75;
62054;PMS5003;48653;51.742;-1.256;2024-03-08T01:57:39;93;78;
62054;PMS5003;48653;51.742;-1.256;2024-03-08T02:00:04;81;70;
62054;PMS5003;48653;51.742;-1.256;2024-03-08T02:02:29;94;78;
62054;PMS5003;48653;51.742;-1.256;2024-03-08T02:04:55;89;76;
62054;PMS5003;48653;51.742;-1.256;2024-03-08T02:07:20;96;75;
62054;PMS5003;48653;51.742;-1.256;2024-03-08T02:09:46;84;68;
62054;PMS5003;48653;51.742;-1.256;2024-03-08T02:12:11;84;70;
62054;PMS5003;48653;51.742;-1.256;2024-03-08T02:14:37;104;76;
62054;PMS5003;48653;51.742;-1.256;2024-03-08T02:17:03;98;82;
62054;PMS5003;48653;51.742;-1.256;2024-03-08T02:19:28;93;75;
62054;PMS5003;48653;51.742;-1.256;2024-03-08T02:21:54;86;78;
62054;PMS5003;48653;51.742;-1.256;2024-03-08T02:24:19;98;80;
62054;PMS5003;48653;51.742;-1.256;2024-03-08T02:26:45;91;73;
62054;PMS5003;48653;51.742;-1.256;2024-03-08T02:29:10;90;77;
62054;PMS5003;48653;51.742;-1.256;2024-03-08T02:31:35;94;74;
62054;PMS5003;48653;51.742;-1.256;2024-03-08T02:34:00;91;77;
62054;PMS5003;48653;51.742;-1.256;2024-03-08T02:36:26;103;84;
62054;PMS5003;48653;51.742;-1.256;2024-03-08T02:38:51;99;82;
62054;PMS5003;48653;51.742;-1.256;2024-03-08T02:41:17;92;77;
62054;PMS5003;48653;51.742;-1.256;2024-03-08T02:43:42;92;76;
62054;PMS5003;48653;51.742;-1.256;2024-03-08T02:46:07;90;80;
62054;PMS5003;48653;51.742;-1.256;2024-03-08T02:48:32;90;74;
62054;PMS5003;48653;51.742;-1.256;2024-03-08T02:50:57;99;84;
62054;PMS5003;48653;51.742;-1.256;2024-03-08T02:53:22;87;71;
62054;PMS5003;48653;51.742;-1.256;2024-03-08T02:55:48;102;80;
62054;PMS5003;48653;51.742;-1.256;2024-03-08T02:58:14;90;68;
62054;PMS5003;48653;51.742;-1.256;2024-03-08T03:00:39;85;71;
62054;PMS5003;48653;51.742;-1.256;2024-03-08T03:03:05;89;72;
62054;PMS5003;48653;51.742;-1.256;2024-03-08T03:05:31;89;78;
62054;PMS5003;48653;51.742;-1.256;2024-03-08T03:07:56;92;80;
62054;PMS5003;48653;51.742;-1.256;2024-03-08T03:10:21;94;82;
62054;PMS5003;48653;51.742;-1.256;2024-03-08T03:12:47;85;76;
62054;PMS5003;48653;51.742;-1.256;2024-03-08T03:15:12;92;74;
62054;PMS5003;48653;51.742;-1.256;2024-03-08T03:17:37;86;77;
62054;PMS5003;48653;51.742;-1.256;2024-03-08T03:20:04;102;74;
62054;PMS5003;48653;51.742;-1.256;2024-03-08T03:22:28;92;75;
62054;PMS5003;48653;51.742;-1.256;2024-03-08T03:24:53;92;72;
62054;PMS5003;48653;51.742;-1.256;2024-03-08T03:27:18;93;83;
62054;PMS5003;48653;51.742;-1.256;2024-03-08T03:29:44;99;80;
62054;PMS5003;48653;51.742;-1.256;2024-03-08T03:32:09;93;75;
62054;PMS5003;48653;51.742;-1.256;2024-03-08T03:34:35;89;71;
62054;PMS5003;48653;51.742;-1.256;2024-03-08T03:37:00;96;80;
62054;PMS5003;48653;51.742;-1.256;2024-03-08T03:39:25;97;77;
62054;PMS5003;48653;51.742;-1.256;2024-03-08T03:41:51;96;78;
62054;PMS5003;48653;51.742;-1.256;2024-03-08T03:44:16;89;70;
62054;PMS5003;48653;51.742;-1.256;2024-03-08T03:46:42;106;85;
62054;PMS5003;48653;51.742;-1.256;2024-03-08T03:49:07;88;71;
62054;PMS5003;48653;51.742;-1.256;2024-03-08T03:51:33;96;80;
62054;PMS5003;48653;51.742;-1.256;2024-03-08T03:53:58;99;83;
62054;PMS5003;48653;51.742;-1.256;2024-03-08T03:56:25;94;79;
62054;PMS5003;48653;51.742;-1.256;2024-03-08T03:58:49;96;78;
62054;PMS5003;48653;51.742;-1.256;2024-03-08T04:01:14;98;80;
62054;PMS5003;48653;51.742;-1.256;2024-03-08T04:03:41;98;79;
62054;PMS5003;48653;51.742;-1.256;2024-03-08T04:06:05;89;69;
62054;PMS5003;48653;51.742;-1.256;2024-03-08T04:08:30;90;78;
62054;PMS5003;48653;51.742;-1.256;2024-03-08T04:10:56;102;87;
62054;PMS5003;48653;51.742;-1.256;2024-03-08T04:13:21;87;75;
62054;PMS5003;48653;51.742;-1.256;2024-03-08T04:15:47;98;80;
62054;PMS5003;48653;51.742;-1.256;2024-03-08T04:18:13;98;76;
62054;PMS5003;48653;51.742;-1.256;2024-03-08T04:20:38;92;76;
62054;PMS5003;48653;51.742;-1.256;2024-03-08T04:23:03;90;71;
62054;PMS5003;48653;51.742;-1.256;2024-03-08T04:25:29;95;80;
62054;PMS5003;48653;51.742;-1.256;2024-03-08T04:27:54;90;71;
62054;PMS5003;48653;51.742;-1.256;2024-03-08T04:30:20;82;71;
62054;PMS5003;48653;51.742;-1.256;2024-03-08T04:32:45;101;83;
62054;PMS5003;48653;51.742;-1.256;2024-03-08T04:35:10;94;79;
62054;PMS5003;48653;51.742;-1.256;2024-03-08T04:37:36;84;68;
62054;PMS5003;48653;51.742;-1.256;2024-03-08T04:40:01;93;75;
62054;PMS5003;48653;51.742;-1.256;2024-03-08T04:42:27;91;80;
62054;PMS5003;48653;51.742;-1.256;2024-03-08T04:44:52;99;73;
62054;PMS5003;48653;51.742;-1.256;2024-03-08T04:47:18;103;78;
62054;PMS5003;48653;51.742;-1.256;2024-03-08T04:49:43;94;76;
62054;PMS5003;48653;51.742;-1.256;2024-03-08T04:52:09;90;78;
62054;PMS5003;48653;51.742;-1.256;2024-03-08T04:54:35;92;75;
62054;PMS5003;48653;51.742;-1.256;2024-03-08T04:57:00;95;77;
62054;PMS5003;48653;51.742;-1.256;2024-03-08T04:59:25;99;84;
62054;PMS5003;48653;51.742;-1.256;2024-03-08T05:01:50;87;70;
62054;PMS5003;48653;51.742;-1.256;2024-03-08T05:04:16;90;73;
62054;PMS5003;48653;51.742;-1.256;2024-03-08T05:06:41;96;76;
62054;PMS5003;48653;51.742;-1.256;2024-03-08T05:09:07;92;74;
62054;PMS5003;48653;51.742;-1.256;2024-03-08T05:11:32;96;76;
62054;PMS5003;48653;51.742;-1.256;2024-03-08T05:13:58;86;76;
62054;PMS5003;48653;51.742;-1.256;2024-03-08T05:16:23;103;81;
62054;PMS5003;48653;51.742;-1.256;2024-03-08T05:18:48;82;72;
62054;PMS5003;48653;51.742;-1.256;2024-03-08T05:21:14;93;84;
62054;PMS5003;48653;51.742;-1.256;2024-03-08T05:23:39;91;78;
62054;PMS5003;48653;51.742;-1.256;2024-03-08T05:26:05;90;75;
62054;PMS5003;48653;51.742;-1.256;2024-03-08T05:28:30;86;68;
62054;PMS5003;48653;51.742;-1.256;2024-03-08T05:30:55;97;74;
62054;PMS5003;48653;51.742;-1.256;2024-03-08T05:33:20;98;79;
62054;PMS5003;48653;51.742;-1.256;2024-03-08T05:35:46;97;81;
62054;PMS5003;48653;51.742;-1.256;2024-03-08T05:38:11;97;78;
62054;PMS5003;48653;51.742;-1.256;2024-03-08T05:40:37;93;70;
62054;PMS5003;48653;51.742;-1.256;2024-03-08T05:43:03;90;78;
62054;PMS5003;48653;51.742;-1.256;2024-03-08T05:45:29;94;75;
62054;PMS5003;48653;51.742;-1.256;2024-03-08T05:47:54;93;78;
62054;PMS5003;48653;51.742;-1.256;2024-03-08T05:50:19;95;73;
62054;PMS5003;48653;51.742;-1.256;2024-03-08T05:52:44;88;71;
62054;PMS5003;48653;51.742;-1.256;2024-03-08T05:55:09;101;83;
62054;PMS5003;48653;51.742;-1.256;2024-03-08T05:57:35;82;71;
62054;PMS5003;48653;51.742;-1.256;2024-03-08T06:00:00;90;74;
62054;PMS5003;48653;51.742;-1.256;2024-03-08T06:02:26;92;78;
62054;PMS5003;48653;51.742;-1.256;2024-03-08T06:04:51;90;75;
62054;PMS5003;48653;51.742;-1.256;2024-03-08T06:07:17;93;74;
62054;PMS5003;48653;51.742;-1.256;2024-03-08T06:09:42;92;75;
62054;PMS5003;48653;51.742;-1.256;2024-03-08T06:12:08;91;74;
62054;PMS5003;48653;51.742;-1.256;2024-03-08T06:14:33;89;79;
62054;PMS5003;48653;51.742;-1.256;2024-03-08T06:16:59;95;75;
62054;PMS5003;48653;51.742;-1.256;2024-03-08T06:19:24;91;79;
62054;PMS5003;48653;51.742;-1.256;2024-03-08T06:21:49;99;78;
62054;PMS5003;48653;51.742;-1.256;2024-03-08T06:24:14;92;75;
62054;PMS5003;48653;51.742;-1.256;2024-03-08T06:26:39;92;71;
62054;PMS5003;48653;51.742;-1.256;2024-03-08T06:29:05;95;78;
62054;PMS5003;48653;51.742;-1.256;2024-03-08T06:31:30;83;73;
62054;PMS5003;48653;51.742;-1.256;2024-03-08T06:33:55;93;70;
62054;PMS5003;48653;51.742;-1.256;2024-03-08T06:36:20;80;72;
62054;PMS5003;48653;51.742;-1.256;2024-03-08T06:38:46;86;76;
62054;PMS5003;48653;51.742;-1.256;2024-03-08T06:41:12;91;74;
62054;PMS5003;48653;51.742;-1.256;2024-03-08T06:43:37;88;72;
62054;PMS5003;48653;51.742;-1.256;2024-03-08T06:46:02;88;71;
62054;PMS5003;48653;51.742;-1.256;2024-03-08T06:48:27;84;74;
62054;PMS5003;48653;51.742;-1.256;2024-03-08T06:50:53;84;73;
62054;PMS5003;48653;51.742;-1.256;2024-03-08T06:53:19;89;73;
62054;PMS5003;48653;51.742;-1.256;2024-03-08T06:55:44;90;73;
62054;PMS5003;48653;51.742;-1.256;2024-03-08T06:58:10;88;71;
62054;PMS5003;48653;51.742;-1.256;2024-03-08T07:00:35;92;73;
62054;PMS5003;48653;51.742;-1.256;2024-03-08T07:03:01;89;73;
62054;PMS5003;48653;51.742;-1.256;2024-03-08T07:05:29;96;80;
62054;PMS5003;48653;51.742;-1.256;2024-03-08T07:07:52;93;74;
62054;PMS5003;48653;51.742;-1.256;2024-03-08T07:10:23;89;70;
62054;PMS5003;48653;51.742;-1.256;2024-03-08T07:12:42;99;77;
62054;PMS5003;48653;51.742;-1.256;2024-03-08T07:15:09;77;70;
62054;PMS5003;48653;51.742;-1.256;2024-03-08T07:17:33;90;75;
62054;PMS5003;48653;51.742;-1.256;2024-03-08T07:19:59;95;76;
62054;PMS5003;48653;51.742;-1.256;2024-03-08T07:22:25;95;80;
62054;PMS5003;48653;51.742;-1.256;2024-03-08T07:24:50;90;77;
62054;PMS5003;48653;51.742;-1.256;2024-03-08T07:27:16;91;72;
62054;PMS5003;48653;51.742;-1.256;2024-03-08T07:29:41;93;78;
62054;PMS5003;48653;51.742;-1.256;2024-03-08T07:32:07;98;79;
62054;PMS5003;48653;51.742;-1.256;2024-03-08T07:34:32;91;73;
62054;PMS5003;48653;51.742;-1.256;2024-03-08T07:36:57;87;74;
62054;PMS5003;48653;51.742;-1.256;2024-03-08T07:39:22;95;81;
62054;PMS5003;48653;51.742;-1.256;2024-03-08T07:41:47;97;78;
62054;PMS5003;48653;51.742;-1.256;2024-03-08T07:44:12;88;72;
62054;PMS5003;48653;51.742;-1.256;2024-03-08T07:46:38;88;75;
62054;PMS5003;48653;51.742;-1.256;2024-03-08T07:49:04;80;70;
62054;PMS5003;48653;51.742;-1.256;2024-03-08T07:51:29;92;72;
62054;PMS5003;48653;51.742;-1.256;2024-03-08T07:53:55;89;76;
62054;PMS5003;48653;51.742;-1.256;2024-03-08T07:56:20;83;67;
62054;PMS5003;48653;51.742;-1.256;2024-03-08T07:58:46;94;78;
62054;PMS5003;48653;51.742;-1.256;2024-03-08T08:01:15;95;74;
62054;PMS5003;48653;51.742;-1.256;2024-03-08T08:03:36;84;68;
62054;PMS5003;48653;51.742;-1.256;2024-03-08T08:06:02;91;70;
62054;PMS5003;48653;51.742;-1.256;2024-03-08T08:08:27;87;71;
62054;PMS5003;48653;51.742;-1.256;2024-03-08T08:10:52;99;71;
62054;PMS5003;48653;51.742;-1.256;2024-03-08T08:13:18;90;68;
62054;PMS5003;48653;51.742;-1.256;2024-03-08T08:15:43;81;69;
62054;PMS5003;48653;51.742;-1.256;2024-03-08T08:18:09;89;73;
62054;PMS5003;48653;51.742;-1.256;2024-03-08T08:20:35;91;68;
62054;PMS5003;48653;51.742;-1.256;2024-03-08T08:23:00;82;66;
62054;PMS5003;48653;51.742;-1.256;2024-03-08T08:25:26;87;65;
62054;PMS5003;48653;51.742;-1.256;2024-03-08T08:27:52;79;68;
62054;PMS5003;48653;51.742;-1.256;2024-03-08T08:30:17;77;63;
62054;PMS5003;48653;51.742;-1.256;2024-03-08T08:32:42;101;73;
62054;PMS5003;48653;51.742;-1.256;2024-03-08T08:35:08;91;69;
62054;PMS5003;48653;51.742;-1.256;2024-03-08T08:37:33;75;67;
62054;PMS5003;48653;51.742;-1.256;2024-03-08T08:39:58;86;73;
62054;PMS5003;48653;51.742;-1.256;2024-03-08T08:42:24;89;77;
62054;PMS5003;48653;51.742;-1.256;2024-03-08T08:44:50;85;72;
62054;PMS5003;48653;51.742;-1.256;2024-03-08T08:47:15;84;67;
62054;PMS5003;48653;51.742;-1.256;2024-03-08T08:49:40;92;75;
62054;PMS5003;48653;51.742;-1.256;2024-03-08T08:52:05;90;69;
62054;PMS5003;48653;51.742;-1.256;2024-03-08T08:54:31;82;68;
62054;PMS5003;48653;51.742;-1.256;2024-03-08T08:56:56;79;68;
62054;PMS5003;48653;51.742;-1.256;2024-03-08T08:59:22;84;69;
62054;PMS5003;48653;51.742;-1.256;2024-03-08T09:01:47;70;61;
62054;PMS5003;48653;51.742;-1.256;2024-03-08T09:04:13;69;59;
62054;PMS5003;48653;51.742;-1.256;2024-03-08T09:06:39;77;64;
62054;PMS5003;48653;51.742;-1.256;2024-03-08T09:09:04;76;63;
62054;PMS5003;48653;51.742;-1.256;2024-03-08T09:11:29;88;69;
62054;PMS5003;48653;51.742;-1.256;2024-03-08T09:13:55;69;59;
62054;PMS5003;48653;51.742;-1.256;2024-03-08T09:16:21;71;68;
62054;PMS5003;48653;51.742;-1.256;2024-03-08T09:18:46;67;57;
62054;PMS5003;48653;51.742;-1.256;2024-03-08T09:21:11;73;63;
62054;PMS5003;48653;51.742;-1.256;2024-03-08T09:23:37;85;66;
62054;PMS5003;48653;51.742;-1.256;2024-03-08T09:26:03;68;62;
62054;PMS5003;48653;51.742;-1.256;2024-03-08T09:28:28;79;61;
62054;PMS5003;48653;51.742;-1.256;2024-03-08T09:30:54;77;61;
62054;PMS5003;48653;51.742;-1.256;2024-03-08T09:33:20;65;59;
62054;PMS5003;48653;51.742;-1.256;2024-03-08T09:35:45;72;61;
62054;PMS5003;48653;51.742;-1.256;2024-03-08T09:38:10;76;65;
62054;PMS5003;48653;51.742;-1.256;2024-03-08T09:40:36;76;62;
62054;PMS5003;48653;51.742;-1.256;2024-03-08T09:43:01;76;58;
62054;PMS5003;48653;51.742;-1.256;2024-03-08T09:45:26;82;62;
62054;PMS5003;48653;51.742;-1.256;2024-03-08T09:47:52;73;60;
62054;PMS5003;48653;51.742;-1.256;2024-03-08T09:50:17;72;57;
62054;PMS5003;48653;51.742;-1.256;2024-03-08T09:52:42;75;64;
62054;PMS5003;48653;51.742;-1.256;2024-03-08T09:55:08;69;58;
62054;PMS5003;48653;51.742;-1.256;2024-03-08T09:57:33;63;50;
62054;PMS5003;48653;51.742;-1.256;2024-03-08T09:59:59;59;52;
62054;PMS5003;48653;51.742;-1.256;2024-03-08T10:02:25;74;63;
62054;PMS5003;48653;51.742;-1.256;2024-03-08T10:04:51;71;57;
62054;PMS5003;48653;51.742;-1.256;2024-03-08T10:07:16;60;52;
62054;PMS5003;48653;51.742;-1.256;2024-03-08T10:09:41;70;55;
62054;PMS5003;48653;51.742;-1.256;2024-03-08T10:12:07;66;57;
62054;PMS5003;48653;51.742;-1.256;2024-03-08T10:14:32;68;58;
62054;PMS5003;48653;51.742;-1.256;2024-03-08T10:16:57;72;59;
62054;PMS5003;48653;51.742;-1.256;2024-03-08T10:19:23;54;50;
62054;PMS5003;48653;51.742;-1.256;2024-03-08T10:21:49;70;56;
62054;PMS5003;48653;51.742;-1.256;2024-03-08T10:24:15;59;48;
62054;PMS5003;48653;51.742;-1.256;2024-03-08T10:26:40;61;52;
62054;PMS5003;48653;51.742;-1.256;2024-03-08T10:29:06;69;54;
62054;PMS5003;48653;51.742;-1.256;2024-03-08T10:31:33;71;57;
62054;PMS5003;48653;51.742;-1.256;2024-03-08T10:33:56;68;55;
62054;PMS5003;48653;51.742;-1.256;2024-03-08T10:36:22;68;60;
62054;PMS5003;48653;51.742;-1.256;2024-03-08T10:38:50;66;53;
62054;PMS5003;48653;51.742;-1.256;2024-03-08T10:41:13;70;61;
62054;PMS5003;48653;51.742;-1.256;2024-03-08T10:43:44;64;53;
62054;PMS5003;48653;51.742;-1.256;2024-03-08T10:46:08;66;51;
62054;PMS5003;48653;51.742;-1.256;2024-03-08T10:48:31;71;55;
62054;PMS5003;48653;51.742;-1.256;2024-03-08T10:50:55;62;50;
62054;PMS5003;48653;51.742;-1.256;2024-03-08T10:53:21;67;53;
62054;PMS5003;48653;51.742;-1.256;2024-03-08T10:55:46;68;63;
62054;PMS5003;48653;51.742;-1.256;2024-03-08T10:58:12;69;55;
62054;PMS5003;48653;51.742;-1.256;2024-03-08T11:00:37;71;55;
62054;PMS5003;48653;51.742;-1.256;2024-03-08T11:03:03;65;56;
62054;PMS5003;48653;51.742;-1.256;2024-03-08T11:05:32;58;50;
62054;PMS5003;48653;51.742;-1.256;2024-03-08T11:07:53;69;58;
62054;PMS5003;48653;51.742;-1.256;2024-03-08T11:10:19;63;55;
62054;PMS5003;48653;51.742;-1.256;2024-03-08T11:12:45;72;58;
62054;PMS5003;48653;51.742;-1.256;2024-03-08T11:15:10;70;59;
62054;PMS5003;48653;51.742;-1.256;2024-03-08T11:17:44;66;56;
62054;PMS5003;48653;51.742;-1.256;2024-03-08T11:20:01;63;53;
62054;PMS5003;48653;51.742;-1.256;2024-03-08T11:22:27;65;56;
62054;PMS5003;48653;51.742;-1.256;2024-03-08T11:24:51;65;55;
62054;PMS5003;48653;51.742;-1.256;2024-03-08T11:27:17;71;53;
62054;PMS5003;48653;51.742;-1.256;2024-03-08T11:29:43;62;52;
62054;PMS5003;48653;51.742;-1.256;2024-03-08T11:32:08;67;56;
62054;PMS5003;48653;51.742;-1.256;2024-03-08T11:34:33;71;60;
62054;PMS5003;48653;51.742;-1.256;2024-03-08T11:36:59;61;54;
62054;PMS5003;48653;51.742;-1.256;2024-03-08T11:39:23;77;57;
62054;PMS5003;48653;51.742;-1.256;2024-03-08T11:41:49;63;53;
62054;PMS5003;48653;51.742;-1.256;2024-03-08T11:44:14;70;55;
62054;PMS5003;48653;51.742;-1.256;2024-03-08T11:46:40;67;59;
62054;PMS5003;48653;51.742;-1.256;2024-03-08T11:49:05;64;54;
62054;PMS5003;48653;51.742;-1.256;2024-03-08T11:51:31;60;54;
62054;PMS5003;48653;51.742;-1.256;2024-03-08T11:53:56;68;56;
62054;PMS5003;48653;51.742;-1.256;2024-03-08T11:56:22;60;50;
62054;PMS5003;48653;51.742;-1.256;2024-03-08T11:58:52;69;57;
62054;PMS5003;48653;51.742;-1.256;2024-03-08T12:01:18;61;49;
62054;PMS5003;48653;51.742;-1.256;2024-03-08T12:03:39;65;49;
62054;PMS5003;48653;51.742;-1.256;2024-03-08T12:06:05;60;50;
62054;PMS5003;48653;51.742;-1.256;2024-03-08T12:08:30;57;48;
62054;PMS5003;48653;51.742;-1.256;2024-03-08T12:10:55;54;50;
62054;PMS5003;48653;51.742;-1.256;2024-03-08T12:13:20;57;47;
62054;PMS5003;48653;51.742;-1.256;2024-03-08T12:15:45;55;45;
62054;PMS5003;48653;51.742;-1.256;2024-03-08T12:18:11;54;43;
62054;PMS5003;48653;51.742;-1.256;2024-03-08T12:20:37;52;46;
62054;PMS5003;48653;51.742;-1.256;2024-03-08T12:23:02;57;48;
62054;PMS5003;48653;51.742;-1.256;2024-03-08T12:25:29;56;47;
62054;PMS5003;48653;51.742;-1.256;2024-03-08T12:27:53;58;44;
62054;PMS5003;48653;51.742;-1.256;2024-03-08T12:30:20;56;48;
62054;PMS5003;48653;51.742;-1.256;2024-03-08T12:32:46;55;42;
62054;PMS5003;48653;51.742;-1.256;2024-03-08T12:35:09;56;48;
62054;PMS5003;48653;51.742;-1.256;2024-03-08T12:37:35;60;45;
62054;PMS5003;48653;51.742;-1.256;2024-03-08T12:40:00;47;42;
62054;PMS5003;48653;51.742;-1.256;2024-03-08T12:42:25;58;47;
62054;PMS5003;48653;51.742;-1.256;2024-03-08T12:44:51;54;49;
62054;PMS5003;48653;51.742;-1.256;2024-03-08T12:47:17;44;42;
62054;PMS5003;48653;51.742;-1.256;2024-03-08T12:49:42;58;51;
62054;PMS5003;48653;51.742;-1.256;2024-03-08T12:52:08;46;41;
62054;PMS5003;48653;51.742;-1.256;2024-03-08T12:54:32;56;48;
62054;PMS5003;48653;51.742;-1.256;2024-03-08T12:56:58;58;45;
62054;PMS5003;48653;51.742;-1.256;2024-03-08T12:59:23;51;45;
62054;PMS5003;48653;51.742;-1.256;2024-03-08T13:01:49;51;43;
62054;PMS5003;48653;51.742;-1.256;2024-03-08T13:04:14;48;44;
62054;PMS5003;48653;51.742;-1.256;2024-03-08T13:06:39;44;42;
62054;PMS5003;48653;51.742;-1.256;2024-03-08T13:09:04;48;43;
62054;PMS5003;48653;51.742;-1.256;2024-03-08T13:11:30;46;41;
62054;PMS5003;48653;51.742;-1.256;2024-03-08T13:13:55;51;47;
62054;PMS5003;48653;51.742;-1.256;2024-03-08T13:16:20;49;41;
62054;PMS5003;48653;51.742;-1.256;2024-03-08T13:18:46;50;37;
62054;PMS5003;48653;51.742;-1.256;2024-03-08T13:21:11;43;40;
62054;PMS5003;48653;51.742;-1.256;2024-03-08T13:23:37;45;40;
62054;PMS5003;48653;51.742;-1.256;2024-03-08T13:26:03;46;40;
62054;PMS5003;48653;51.742;-1.256;2024-03-08T13:28:28;48;42;
62054;PMS5003;48653;51.742;-1.256;2024-03-08T13:30:54;45;41;
62054;PMS5003;48653;51.742;-1.256;2024-03-08T13:33:19;53;43;
62054;PMS5003;48653;51.742;-1.256;2024-03-08T13:35:45;41;38;
62054;PMS5003;48653;51.742;-1.256;2024-03-08T13:38:10;49;45;
62054;PMS5003;48653;51.742;-1.256;2024-03-08T13:40:35;41;34;
62054;PMS5003;48653;51.742;-1.256;2024-03-08T13:43:01;50;42;
62054;PMS5003;48653;51.742;-1.256;2024-03-08T13:45:26;45;37;
62054;PMS5003;48653;51.742;-1.256;2024-03-08T13:47:53;44;36;
62054;PMS5003;48653;51.742;-1.256;2024-03-08T13:50:17;43;36;
62054;PMS5003;48653;51.742;-1.256;2024-03-08T13:52:43;47;43;
62054;PMS5003;48653;51.742;-1.256;2024-03-08T13:55:08;54;44;
62054;PMS5003;48653;51.742;-1.256;2024-03-08T13:57:34;50;41;
62054;PMS5003;48653;51.742;-1.256;2024-03-08T14:00:00;44;38;
62054;PMS5003;48653;51.742;-1.256;2024-03-08T14:02:25;47;41;
62054;PMS5003;48653;51.742;-1.256;2024-03-08T14:04:50;47;39;
62054;PMS5003;48653;51.742;-1.256;2024-03-08T14:07:16;43;40;
62054;PMS5003;48653;51.742;-1.256;2024-03-08T14:09:42;42;38;
62054;PMS5003;48653;51.742;-1.256;2024-03-08T14:12:07;45;41;
62054;PMS5003;48653;51.742;-1.256;2024-03-08T14:14:33;45;41;
62054;PMS5003;48653;51.742;-1.256;2024-03-08T14:16:59;42;37;
62054;PMS5003;48653;51.742;-1.256;2024-03-08T14:19:25;51;40;
62054;PMS5003;48653;51.742;-1.256;2024-03-08T14:21:50;45;41;
62054;PMS5003;48653;51.742;-1.256;2024-03-08T14:24:16;47;38;
62054;PMS5003;48653;51.742;-1.256;2024-03-08T14:26:41;44;40;
62054;PMS5003;48653;51.742;-1.256;2024-03-08T14:29:06;48;38;
62054;PMS5003;48653;51.742;-1.256;2024-03-08T14:31:31;51;42;
62054;PMS5003;48653;51.742;-1.256;2024-03-08T14:33:57;47;39;
62054;PMS5003;48653;51.742;-1.256;2024-03-08T14:36:22;47;43;
62054;PMS5003;48653;51.742;-1.256;2024-03-08T14:38:47;49;44;
62054;PMS5003;48653;51.742;-1.256;2024-03-08T14:41:13;52;46;
62054;PMS5003;48653;51.742;-1.256;2024-03-08T14:43:39;44;39;
62054;PMS5003;48653;51.742;-1.256;2024-03-08T14:46:04;51;40;
62054;PMS5003;48653;51.742;-1.256;2024-03-08T14:48:29;41;38;
62054;PMS5003;48653;51.742;-1.256;2024-03-08T14:50:55;48;41;
62054;PMS5003;48653;51.742;-1.256;2024-03-08T14:53:21;48;39;
62054;PMS5003;48653;51.742;-1.256;2024-03-08T14:55:46;51;44;
62054;PMS5003;48653;51.742;-1.256;2024-03-08T14:58:12;52;44;
62054;PMS5003;48653;51.742;-1.256;2024-03-08T15:00:37;50;46;
62054;PMS5003;48653;51.742;-1.256;2024-03-08T15:03:03;48;42;
62054;PMS5003;48653;51.742;-1.256;2024-03-08T15:05:28;47;42;
62054;PMS5003;48653;51.742;-1.256;2024-03-08T15:07:54;46;44;
62054;PMS5003;48653;51.742;-1.256;2024-03-08T15:10:18;46;41;
62054;PMS5003;48653;51.742;-1.256;2024-03-08T15:12:44;53;45;
62054;PMS5003;48653;51.742;-1.256;2024-03-08T15:15:11;43;39;
62054;PMS5003;48653;51.742;-1.256;2024-03-08T15:17:35;49;42;
62054;PMS5003;48653;51.742;-1.256;2024-03-08T15:20:01;52;45;
62054;PMS5003;48653;51.742;-1.256;2024-03-08T15:22:26;58;47;
62054;PMS5003;48653;51.742;-1.256;2024-03-08T15:24:51;57;46;
62054;PMS5003;48653;51.742;-1.256;2024-03-08T15:27:17;48;43;
62054;PMS5003;48653;51.742;-1.256;2024-03-08T15:29:42;52;43;
62054;PMS5003;48653;51.742;-1.256;2024-03-08T15:32:07;53;44;
62054;PMS5003;48653;51.742;-1.256;2024-03-08T15:34:33;54;43;
62054;PMS5003;48653;51.742;-1.256;2024-03-08T15:36:59;55;47;
62054;PMS5003;48653;51.742;-1.256;2024-03-08T15:39:24;57;41;
62054;PMS5003;48653;51.742;-1.256;2024-03-08T15:41:50;51;43;
62054;PMS5003;48653;51.742;-1.256;2024-03-08T15:44:15;60;48;
62054;PMS5003;48653;51.742;-1.256;2024-03-08T15:46:42;55;46;
62054;PMS5003;48653;51.742;-1.256;2024-03-08T15:49:06;44;42;
62054;PMS5003;48653;51.742;-1.256;2024-03-08T15:51:31;50;43;